createdAt,value
2022-11-19T00:01:50.997Z,24.57
2022-11-19T00:05:14.697Z,21.30
2022-11-19T00:08:39.142Z,24.20
2022-11-19T00:12:20.159Z,24.97
2022-11-19T00:15:43.955Z,23.80
2022-11-19T00:19:10.547Z,20.60
2022-11-19T00:22:34.194Z,23.80
2022-11-19T00:26:04.655Z,23.93
2022-11-19T00:29:28.882Z,22.23
2022-11-19T00:32:52.722Z,23.67
2022-11-19T00:36:18.688Z,22.77
2022-11-19T00:39:42.867Z,23.40
2022-11-19T00:43:24.049Z,24.87
2022-11-19T00:46:47.834Z,27.43
2022-11-19T00:50:11.513Z,23.40
2022-11-19T00:53:37.173Z,25.50
2022-11-19T00:57:01.230Z,22.70
2022-11-19T01:00:24.987Z,22.10
2022-11-19T01:03:49.015Z,23.80
2022-11-19T01:07:12.933Z,23.33
2022-11-19T01:10:38.249Z,20.70
2022-11-19T01:14:02.641Z,20.47
2022-11-19T01:17:26.329Z,22.80
2022-11-19T01:20:50.163Z,26.13
2022-11-19T01:24:13.899Z,23.97
2022-11-19T01:27:39.020Z,24.33
2022-11-19T01:31:08.460Z,17.63
2022-11-19T01:34:32.306Z,21.23
2022-11-19T01:37:56.702Z,19.87
2022-11-19T01:41:21.917Z,23.20
2022-11-19T01:45:01.317Z,19.90
2022-11-19T01:48:27.468Z,22.97
2022-11-19T01:51:58.113Z,19.83
2022-11-19T01:55:22.630Z,19.20
2022-11-19T01:58:52.547Z,22.00
2022-11-19T02:02:22.576Z,22.77
2022-11-19T02:05:47.393Z,18.33
2022-11-19T02:09:11.168Z,21.97
2022-11-19T02:12:44.096Z,19.20
2022-11-19T02:16:12.566Z,17.40
2022-11-19T02:20:11.571Z,21.63
2022-11-19T02:24:02.618Z,20.90
2022-11-19T02:28:00.533Z,20.53
2022-11-19T02:31:29.346Z,19.17
2022-11-19T02:34:56.928Z,17.60
2022-11-19T02:38:29.988Z,14.93
2022-11-19T02:41:57.824Z,20.50
2022-11-19T02:45:27.341Z,17.23
2022-11-19T02:48:53.625Z,18.97
2022-11-19T02:52:18.766Z,19.17
2022-11-19T02:56:02.694Z,17.20
2022-11-19T02:59:50.163Z,18.23
2022-11-19T03:03:34.188Z,19.20
2022-11-19T03:07:02.319Z,19.50
2022-11-19T03:10:32.940Z,18.50
2022-11-19T03:14:17.736Z,19.23
2022-11-19T03:18:02.348Z,18.70
2022-11-19T03:21:31.346Z,16.73
2022-11-19T03:25:02.978Z,18.50
2022-11-19T03:28:31.504Z,18.20
2022-11-19T03:32:00.333Z,19.23
2022-11-19T03:35:35.653Z,16.97
2022-11-19T03:39:04.203Z,17.60
2022-11-19T03:42:30.679Z,19.17
2022-11-19T03:45:57.555Z,15.93
2022-11-19T03:49:29.093Z,19.53
2022-11-19T03:52:53.185Z,20.10
2022-11-19T03:56:22.905Z,19.37
2022-11-19T03:59:48.830Z,18.20
2022-11-19T04:03:12.649Z,18.47
2022-11-19T04:06:37.009Z,18.70
2022-11-19T04:10:01.305Z,17.17
2022-11-19T04:13:25.110Z,18.43
2022-11-19T04:16:50.418Z,18.87
2022-11-19T04:20:14.340Z,17.10
2022-11-19T04:23:38.134Z,19.03
2022-11-19T04:27:01.983Z,17.47
2022-11-19T04:30:25.729Z,17.00
2022-11-19T04:33:50.859Z,19.30
2022-11-19T04:37:14.606Z,18.13
2022-11-19T04:40:39.098Z,16.37
2022-11-19T04:44:03.315Z,16.20
2022-11-19T04:47:27.033Z,16.40
2022-11-19T04:50:52.175Z,15.67
2022-11-19T04:54:15.911Z,12.83
2022-11-19T04:57:39.636Z,13.10
2022-11-19T05:01:03.936Z,12.53
2022-11-19T05:04:27.783Z,18.10
2022-11-19T05:07:52.965Z,15.40
2022-11-19T05:11:16.760Z,15.23
2022-11-19T05:14:40.716Z,14.73
2022-11-19T05:18:04.601Z,15.33
2022-11-19T05:21:28.475Z,13.90
2022-11-19T05:24:53.629Z,13.73
2022-11-19T05:28:17.354Z,13.03
2022-11-19T05:31:41.098Z,14.10
2022-11-19T05:35:04.991Z,13.60
2022-11-19T05:38:28.744Z,14.00
2022-11-19T05:41:53.710Z,13.40
2022-11-19T05:45:17.603Z,12.37
2022-11-19T05:48:41.416Z,13.80
2022-11-19T05:52:05.544Z,11.13
2022-11-19T05:55:29.324Z,13.63
2022-11-19T05:58:54.450Z,12.47
2022-11-19T06:02:18.221Z,12.30
2022-11-19T06:05:41.948Z,12.20
2022-11-19T06:09:05.917Z,12.57
2022-11-19T06:12:29.565Z,12.63
2022-11-19T06:15:54.635Z,11.80
2022-11-19T06:19:18.699Z,12.57
2022-11-19T06:22:42.688Z,11.93
2022-11-19T06:26:08.798Z,13.30
2022-11-19T06:29:32.644Z,11.27
2022-11-19T06:32:57.825Z,12.60
2022-11-19T06:36:21.801Z,13.67
2022-11-19T06:39:45.487Z,11.10
2022-11-19T06:43:09.291Z,13.07
2022-11-19T06:46:33.032Z,13.50
2022-11-19T06:49:58.171Z,13.33
2022-11-19T06:53:21.888Z,12.63
2022-11-19T06:56:45.661Z,11.93
2022-11-19T07:00:10.820Z,13.57
2022-11-19T07:03:35.667Z,12.93
2022-11-19T07:07:01.025Z,13.43
2022-11-19T07:10:24.868Z,13.77
2022-11-19T07:14:00.639Z,13.60
2022-11-19T07:17:24.344Z,13.77
2022-11-19T07:20:48.090Z,15.30
2022-11-19T07:24:13.283Z,13.07
2022-11-19T07:27:37.029Z,12.90
2022-11-19T07:31:00.725Z,13.27
2022-11-19T07:34:24.635Z,12.53
2022-11-19T07:37:48.447Z,14.27
2022-11-19T07:41:27.755Z,13.47
2022-11-19T07:44:54.749Z,12.50
2022-11-19T07:48:19.091Z,12.87
2022-11-19T07:51:43.560Z,12.57
2022-11-19T07:55:08.266Z,13.37
2022-11-19T07:58:33.646Z,12.80
2022-11-19T08:01:57.415Z,13.13
2022-11-19T08:05:20.985Z,11.73
2022-11-19T08:08:45.552Z,10.50
2022-11-19T08:12:09.319Z,12.40
2022-11-19T08:15:35.452Z,12.17
2022-11-19T08:18:59.061Z,11.20
2022-11-19T08:22:22.796Z,10.60
2022-11-19T08:25:47.011Z,10.63
2022-11-19T08:29:15.979Z,10.67
2022-11-19T08:32:41.654Z,10.83
2022-11-19T08:36:05.982Z,10.80
2022-11-19T08:39:29.695Z,11.60
2022-11-19T08:43:02.236Z,9.90
2022-11-19T08:46:25.946Z,11.47
2022-11-19T08:49:50.856Z,10.00
2022-11-19T08:53:14.553Z,10.50
2022-11-19T08:56:38.674Z,11.53
2022-11-19T09:00:06.426Z,9.83
2022-11-19T09:03:30.753Z,10.50
2022-11-19T09:06:56.688Z,10.27
2022-11-19T09:10:20.481Z,8.40
2022-11-19T09:13:44.583Z,10.33
2022-11-19T09:17:08.268Z,10.77
2022-11-19T09:20:31.874Z,10.37
2022-11-19T09:23:57.000Z,9.00
2022-11-19T09:27:20.832Z,10.40
2022-11-19T09:30:44.506Z,9.40
2022-11-19T09:34:08.196Z,8.70
2022-11-19T09:37:34.073Z,11.97
2022-11-19T09:41:12.012Z,9.27
2022-11-19T09:44:58.317Z,10.70
2022-11-19T09:48:32.451Z,9.90
2022-11-19T09:52:04.814Z,10.87
2022-11-19T09:55:33.812Z,10.07
2022-11-19T09:59:00.008Z,9.00
2022-11-19T10:02:24.328Z,8.17
2022-11-19T10:06:00.408Z,9.80
2022-11-19T10:09:40.220Z,9.13
2022-11-19T10:13:20.878Z,11.13
2022-11-19T10:16:58.112Z,9.03
2022-11-19T10:20:35.273Z,9.00
2022-11-19T10:24:09.324Z,9.43
2022-11-19T10:27:41.614Z,9.13
2022-11-19T10:31:09.018Z,9.70
2022-11-19T10:34:37.464Z,8.67
2022-11-19T10:38:04.855Z,9.43
2022-11-19T10:41:35.015Z,7.70
2022-11-19T10:45:02.963Z,7.67
2022-11-19T10:48:37.497Z,7.13
2022-11-19T10:52:02.772Z,7.67
2022-11-19T10:55:30.034Z,8.63
2022-11-19T10:58:58.528Z,8.13
2022-11-19T11:02:32.677Z,7.57
2022-11-19T11:05:59.353Z,8.70
2022-11-19T11:09:32.926Z,7.73
2022-11-19T11:13:31.259Z,7.30
2022-11-19T11:16:55.004Z,5.57
2022-11-19T11:20:27.061Z,6.03
2022-11-19T11:23:54.025Z,6.87
2022-11-19T11:27:25.632Z,6.30
2022-11-19T11:30:58.175Z,5.67
2022-11-19T11:34:34.255Z,7.50
2022-11-19T11:37:58.594Z,7.27
2022-11-19T11:45:23.203Z,6.97
2022-11-19T11:48:49.815Z,6.93
2022-11-19T11:52:20.986Z,6.60
2022-11-19T11:55:45.025Z,9.27
2022-11-19T11:59:17.644Z,7.37
2022-11-19T12:02:59.844Z,9.50
2022-11-19T12:06:26.204Z,7.30
2022-11-19T12:09:59.285Z,7.60
2022-11-19T12:13:50.395Z,7.97
2022-11-19T12:17:33.391Z,7.83
2022-11-19T12:21:06.251Z,7.60
2022-11-19T12:24:49.323Z,8.93
2022-11-19T12:28:27.675Z,6.43
2022-11-19T12:32:07.194Z,6.90
2022-11-19T12:35:44.529Z,7.97
2022-11-19T12:39:20.164Z,7.10
2022-11-19T12:42:54.508Z,8.00
2022-11-19T12:46:24.314Z,7.73
2022-11-19T12:50:04.055Z,7.70
2022-11-19T12:53:53.860Z,6.00
2022-11-19T12:57:33.634Z,7.33
2022-11-19T13:01:01.675Z,7.20
2022-11-19T13:04:33.401Z,5.93
2022-11-19T13:08:02.712Z,5.97
2022-11-19T13:11:36.332Z,6.37
2022-11-19T13:15:05.448Z,6.00
2022-11-19T13:18:33.716Z,7.27
2022-11-19T13:22:01.668Z,7.43
2022-11-19T13:25:28.536Z,5.00
2022-11-19T13:28:55.926Z,6.10
2022-11-19T13:32:26.662Z,6.27
2022-11-19T13:35:58.244Z,6.60
2022-11-19T13:39:30.014Z,6.40
2022-11-19T13:46:59.511Z,5.33
2022-11-19T13:50:29.900Z,6.63
2022-11-19T13:54:02.391Z,6.43
2022-11-19T13:57:32.012Z,6.30
2022-11-19T14:01:11.798Z,6.00
2022-11-19T14:04:50.946Z,6.20
2022-11-19T14:08:29.337Z,6.37
2022-11-19T14:12:09.636Z,5.70
2022-11-19T14:16:12.372Z,6.10
2022-11-19T14:20:06.820Z,5.53
2022-11-19T14:24:16.936Z,6.40
2022-11-19T14:27:40.954Z,6.63
2022-11-19T14:31:05.679Z,5.63
2022-11-19T14:34:31.350Z,6.73
2022-11-19T14:37:58.811Z,5.90
2022-11-19T14:41:32.873Z,5.87
2022-11-19T14:45:21.542Z,5.93
2022-11-19T14:48:52.645Z,5.80
2022-11-19T14:52:22.067Z,6.00
2022-11-19T14:55:54.958Z,6.00
2022-11-19T14:59:23.001Z,6.67
2022-11-19T15:02:50.256Z,5.53
2022-11-19T15:06:19.525Z,5.33
2022-11-19T15:10:02.990Z,6.90
2022-11-19T15:13:28.097Z,5.50
2022-11-19T15:16:53.592Z,5.57
2022-11-19T15:20:29.811Z,6.40
2022-11-19T15:24:05.739Z,7.47
2022-11-19T15:27:42.742Z,6.53
2022-11-19T15:31:21.607Z,6.10
2022-11-19T15:35:15.694Z,7.80
2022-11-19T15:38:43.318Z,7.90
2022-11-19T15:42:13.842Z,8.53
2022-11-19T15:45:43.759Z,7.70
2022-11-19T15:49:14.349Z,9.63
2022-11-19T15:52:39.484Z,8.47
2022-11-19T15:56:05.824Z,8.90
2022-11-19T15:59:31.621Z,8.00
2022-11-19T16:02:55.477Z,7.13
2022-11-19T16:06:22.061Z,7.67
2022-11-19T16:09:54.539Z,8.37
2022-11-19T16:13:41.036Z,8.30
2022-11-19T16:17:29.465Z,8.60
2022-11-19T16:20:53.848Z,8.63
2022-11-19T16:24:37.950Z,7.73
2022-11-19T16:28:06.035Z,10.00
2022-11-19T16:31:31.850Z,9.67
2022-11-19T16:35:11.106Z,11.53
2022-11-19T16:38:34.727Z,10.50
2022-11-19T16:42:19.222Z,8.97
2022-11-19T16:45:47.440Z,10.87
2022-11-19T16:49:29.575Z,10.90
2022-11-19T16:52:53.261Z,11.23
2022-11-19T16:56:17.200Z,11.60
2022-11-19T16:59:41.369Z,10.73
2022-11-19T17:03:29.857Z,11.00
2022-11-19T17:06:53.575Z,12.53
2022-11-19T17:10:30.443Z,11.77
2022-11-19T17:13:54.211Z,31.30
2022-11-19T17:17:40.429Z,13.80
2022-11-19T17:21:08.826Z,27.03
2022-11-19T17:24:35.238Z,13.80
2022-11-19T17:28:01.310Z,12.17
2022-11-19T17:31:26.866Z,12.03
2022-11-19T17:34:55.146Z,10.43
2022-11-19T17:38:23.792Z,12.27
2022-11-19T17:42:05.948Z,11.23
2022-11-19T17:45:29.570Z,10.47
2022-11-19T17:48:53.775Z,10.10
2022-11-19T17:52:22.545Z,10.40
2022-11-19T17:55:49.359Z,10.43
2022-11-19T17:59:12.992Z,10.20
2022-11-19T18:02:36.652Z,9.57
2022-11-19T18:06:02.309Z,11.30
2022-11-19T18:09:26.864Z,9.77
2022-11-19T18:12:53.808Z,9.70
2022-11-19T18:16:19.727Z,11.20
2022-11-19T18:19:43.689Z,11.63
2022-11-19T18:23:07.440Z,13.57
2022-11-19T18:26:31.060Z,14.07
2022-11-19T18:29:56.008Z,14.70
2022-11-19T18:33:20.963Z,13.70
2022-11-19T18:36:44.857Z,16.43
2022-11-19T18:40:09.634Z,17.60
2022-11-19T18:43:50.808Z,16.40
2022-11-19T18:47:16.355Z,22.73
2022-11-19T18:50:39.916Z,19.83
2022-11-19T18:54:03.567Z,19.87
2022-11-19T18:57:27.269Z,21.07
2022-11-19T19:00:50.934Z,24.33
2022-11-19T19:04:16.272Z,24.00
2022-11-19T19:07:40.000Z,23.20
2022-11-19T19:11:24.475Z,22.93
2022-11-19T19:14:51.520Z,23.93
2022-11-19T19:18:15.336Z,23.13
2022-11-19T19:21:40.559Z,27.33
2022-11-19T19:25:05.107Z,27.30
2022-11-19T19:28:28.670Z,32.10
2022-11-19T19:31:52.390Z,30.00
2022-11-19T19:35:16.184Z,24.70
2022-11-19T19:38:41.636Z,30.97
2022-11-19T19:42:05.455Z,27.77
2022-11-19T19:45:29.221Z,26.53
2022-11-19T19:48:55.315Z,26.97
2022-11-19T19:52:18.909Z,21.93
2022-11-19T19:55:43.939Z,22.80
2022-11-19T19:59:07.789Z,22.37
2022-11-19T20:02:31.466Z,22.30
2022-11-19T20:05:55.179Z,21.70
2022-11-19T20:09:18.907Z,27.03
2022-11-19T20:13:01.370Z,32.30
2022-11-19T20:16:26.979Z,28.70
2022-11-19T20:19:50.670Z,25.47
2022-11-19T20:23:14.469Z,29.20
2022-11-19T20:26:38.432Z,25.77
2022-11-19T20:30:05.683Z,25.07
2022-11-19T20:33:29.658Z,23.43
2022-11-19T20:36:53.739Z,21.47
2022-11-19T20:40:17.503Z,22.90
2022-11-19T20:43:58.666Z,25.77
2022-11-19T20:47:23.662Z,24.40
2022-11-19T20:50:47.272Z,23.27
2022-11-19T20:54:10.968Z,23.10
2022-11-19T20:57:34.701Z,22.60
2022-11-19T21:01:02.927Z,21.00
2022-11-19T21:04:31.274Z,21.77
2022-11-19T21:07:55.224Z,22.30
2022-11-19T21:11:19.273Z,22.17
2022-11-19T21:14:43.171Z,24.03
2022-11-19T21:18:06.779Z,22.10
2022-11-19T21:21:31.775Z,21.20
2022-11-19T21:24:55.452Z,20.90
2022-11-19T21:28:19.379Z,21.80
2022-11-19T21:31:45.434Z,24.00
2022-11-19T21:35:10.303Z,22.30
2022-11-19T21:38:35.838Z,22.23
2022-11-19T21:41:59.521Z,20.90
2022-11-19T21:45:24.030Z,22.50
2022-11-19T21:48:47.649Z,23.53
2022-11-19T21:52:13.283Z,22.40
2022-11-19T21:55:38.446Z,35.10
2022-11-19T21:59:02.261Z,29.43
2022-11-19T22:02:25.996Z,28.33
2022-11-19T22:05:59.595Z,25.57
2022-11-19T22:09:23.277Z,27.50
2022-11-19T22:12:48.382Z,26.20
2022-11-19T22:16:12.101Z,25.50
2022-11-19T22:19:35.916Z,25.57
2022-11-19T22:22:59.677Z,26.40
2022-11-19T22:26:23.364Z,28.87
2022-11-19T22:29:48.343Z,27.33
2022-11-19T22:33:12.173Z,26.40
2022-11-19T22:36:35.873Z,27.67
2022-11-19T22:39:59.459Z,26.13
2022-11-19T22:43:23.251Z,24.80
2022-11-19T22:46:48.309Z,28.10
2022-11-19T22:50:11.981Z,23.00
2022-11-19T22:53:36.208Z,24.40
2022-11-19T22:57:00.004Z,23.57
2022-11-19T23:00:39.832Z,25.70
2022-11-19T23:04:07.080Z,22.73
2022-11-19T23:07:30.943Z,24.57
2022-11-19T23:10:59.327Z,25.27
2022-11-19T23:14:21.987Z,24.63
2022-11-19T23:17:45.728Z,24.07
2022-11-19T23:21:12.571Z,22.20
2022-11-19T23:24:36.275Z,21.50
2022-11-19T23:28:00.077Z,23.53
2022-11-19T23:31:25.767Z,24.27
2022-11-19T23:34:50.302Z,22.10
2022-11-19T23:38:15.774Z,20.80
2022-11-19T23:41:40.280Z,20.67
2022-11-19T23:45:04.629Z,19.97
2022-11-19T23:48:28.234Z,21.90
2022-11-19T23:51:51.840Z,18.47
2022-11-19T23:55:18.884Z,17.87
2022-11-19T23:58:43.208Z,20.87
